createdAt,value
2022-10-04T00:00:19.253Z,0
2022-10-04T00:01:22.438Z,0
2022-10-04T00:02:19.606Z,0
2022-10-04T00:03:19.879Z,0
2022-10-04T00:04:19.285Z,0
2022-10-04T00:05:19.260Z,0
2022-10-04T00:06:22.349Z,0
2022-10-04T00:07:19.290Z,0
2022-10-04T00:08:19.277Z,0
2022-10-04T00:09:19.266Z,0
2022-10-04T00:10:19.285Z,0
2022-10-04T00:11:19.300Z,0
2022-10-04T00:12:22.304Z,0
2022-10-04T00:13:19.291Z,0
2022-10-04T00:14:19.101Z,0
2022-10-04T00:15:19.287Z,0
2022-10-04T00:16:19.588Z,0
2022-10-04T00:17:22.377Z,0
2022-10-04T00:18:19.289Z,0
2022-10-04T00:19:19.309Z,0
2022-10-04T00:20:19.287Z,0
2022-10-04T00:21:19.305Z,0
2022-10-04T00:22:19.311Z,0
2022-10-04T00:23:22.208Z,0
2022-10-04T00:24:19.341Z,0
2022-10-04T00:25:19.312Z,0
2022-10-04T00:26:19.284Z,0
2022-10-04T00:27:19.310Z,0
2022-10-04T00:28:22.735Z,0
2022-10-04T00:29:19.335Z,0
2022-10-04T00:30:19.310Z,0
2022-10-04T00:31:19.758Z,0
2022-10-04T00:32:19.393Z,0
2022-10-04T00:33:19.485Z,0
2022-10-04T00:34:19.305Z,0
2022-10-04T00:35:19.338Z,0
2022-10-04T00:36:19.302Z,0
2022-10-04T00:37:19.342Z,0
2022-10-04T00:38:19.339Z,0
2022-10-04T00:39:19.301Z,0
2022-10-04T00:40:19.535Z,0
2022-10-04T00:41:19.309Z,0
2022-10-04T00:42:19.321Z,0
2022-10-04T00:43:19.358Z,0
2022-10-04T00:44:19.327Z,0
2022-10-04T00:45:19.336Z,0
2022-10-04T00:46:19.739Z,0
2022-10-04T00:47:19.320Z,0
2022-10-04T00:48:19.501Z,0
2022-10-04T00:49:19.386Z,0
2022-10-04T00:50:19.322Z,0
2022-10-04T00:51:19.355Z,0
2022-10-04T00:52:19.328Z,0
2022-10-04T00:53:19.336Z,0
2022-10-04T00:54:19.350Z,0
2022-10-04T00:55:22.168Z,0
2022-10-04T00:56:19.370Z,0
2022-10-04T00:57:19.345Z,0
2022-10-04T00:58:19.189Z,0
2022-10-04T00:59:19.357Z,0
2022-10-04T01:00:19.383Z,0
2022-10-04T01:01:19.766Z,0
2022-10-04T01:02:19.764Z,0
2022-10-04T01:03:19.378Z,0
2022-10-04T01:04:19.363Z,0
2022-10-04T01:05:22.147Z,0
2022-10-04T01:06:22.571Z,0
2022-10-04T01:07:19.662Z,0
2022-10-04T01:08:19.393Z,0
2022-10-04T01:09:19.368Z,0
2022-10-04T01:10:19.420Z,0
2022-10-04T01:11:22.497Z,0
2022-10-04T01:12:19.367Z,0
2022-10-04T01:13:19.599Z,0
2022-10-04T01:14:19.368Z,0
2022-10-04T01:15:19.359Z,0
2022-10-04T01:16:19.830Z,0
2022-10-04T01:17:22.158Z,0
2022-10-04T01:18:19.398Z,0
2022-10-04T01:19:19.385Z,0
2022-10-04T01:20:19.380Z,0
2022-10-04T01:21:19.438Z,0
2022-10-04T01:22:22.268Z,0
2022-10-04T01:23:19.391Z,0
2022-10-04T01:24:19.365Z,0
2022-10-04T01:25:19.381Z,0
2022-10-04T01:26:19.382Z,0
2022-10-04T01:27:19.240Z,0
2022-10-04T01:28:22.539Z,0
2022-10-04T01:29:19.476Z,0
2022-10-04T01:30:22.286Z,0
2022-10-04T01:31:19.764Z,0
2022-10-04T01:32:19.392Z,0
2022-10-04T01:33:22.441Z,0
2022-10-04T01:34:19.512Z,0
2022-10-04T01:35:19.384Z,0
2022-10-04T01:36:19.429Z,0
2022-10-04T01:37:19.476Z,0
2022-10-04T01:38:19.432Z,0
2022-10-04T01:39:22.337Z,0
2022-10-04T01:40:19.512Z,0
2022-10-04T01:41:19.415Z,0
2022-10-04T01:42:19.406Z,0
2022-10-04T01:43:19.482Z,0
2022-10-04T01:44:22.517Z,0
2022-10-04T01:45:19.406Z,0
2022-10-04T01:46:19.783Z,0
2022-10-04T01:47:19.420Z,0
2022-10-04T01:48:19.440Z,0
2022-10-04T01:49:22.542Z,0
2022-10-04T01:50:27.536Z,0
2022-10-04T01:51:19.413Z,0
2022-10-04T01:52:19.417Z,0
2022-10-04T01:53:19.504Z,0
2022-10-04T01:54:19.498Z,0
2022-10-04T01:55:22.481Z,0
2022-10-04T01:56:19.557Z,0
2022-10-04T01:57:19.418Z,0
2022-10-04T01:58:23.318Z,0
2022-10-04T01:59:19.475Z,0
2022-10-04T02:00:22.545Z,0
2022-10-04T02:01:19.814Z,0
2022-10-04T02:02:19.434Z,0
2022-10-04T02:03:19.444Z,0
2022-10-04T02:04:25.110Z,0
2022-10-04T02:05:19.455Z,0
2022-10-04T02:06:22.558Z,0
2022-10-04T02:07:19.443Z,0
2022-10-04T02:08:19.458Z,0
2022-10-04T02:09:19.493Z,0
2022-10-04T02:10:19.460Z,0
2022-10-04T02:11:20.555Z,0
2022-10-04T02:12:19.464Z,0
2022-10-04T02:13:19.456Z,0
2022-10-04T02:14:19.474Z,0
2022-10-04T02:15:19.523Z,0
2022-10-04T02:16:19.684Z,0
2022-10-04T02:17:22.597Z,0
2022-10-04T02:18:19.500Z,0
2022-10-04T02:19:19.481Z,0
2022-10-04T02:20:19.460Z,0
2022-10-04T02:21:19.482Z,0
2022-10-04T02:22:22.461Z,0
2022-10-04T02:23:19.502Z,0
2022-10-04T02:24:19.504Z,0
2022-10-04T02:25:19.519Z,0
2022-10-04T02:26:19.521Z,0
2022-10-04T02:27:22.193Z,0
2022-10-04T02:28:23.697Z,0
2022-10-04T02:29:20.869Z,0
2022-10-04T02:30:19.509Z,0
2022-10-04T02:31:22.813Z,0
2022-10-04T02:32:19.629Z,0
2022-10-04T02:33:23.301Z,0
2022-10-04T02:34:19.478Z,0
2022-10-04T02:35:22.488Z,0
2022-10-04T02:36:19.489Z,0
2022-10-04T02:37:19.706Z,0
2022-10-04T02:38:19.505Z,0
2022-10-04T02:39:22.436Z,0
2022-10-04T02:40:19.512Z,0
2022-10-04T02:41:19.522Z,0
2022-10-04T02:42:19.631Z,0
2022-10-04T02:43:19.509Z,0
2022-10-04T02:44:22.424Z,0
2022-10-04T02:45:19.728Z,0
2022-10-04T02:46:19.933Z,0
2022-10-04T02:47:19.541Z,0
2022-10-04T02:48:19.520Z,0
2022-10-04T02:49:19.497Z,0
2022-10-04T02:50:22.285Z,0
2022-10-04T02:51:19.536Z,0
2022-10-04T02:52:19.491Z,0
2022-10-04T02:53:19.529Z,0
2022-10-04T02:54:19.507Z,0
2022-10-04T02:55:23.407Z,0
2022-10-04T02:56:19.501Z,0
2022-10-04T02:57:19.737Z,0
2022-10-04T02:58:19.554Z,0
2022-10-04T02:59:19.511Z,0
2022-10-04T03:00:19.510Z,0
2022-10-04T03:01:19.967Z,0
2022-10-04T03:02:28.629Z,0
2022-10-04T03:03:19.554Z,0
2022-10-04T03:04:19.624Z,0
2022-10-04T03:05:19.511Z,0
2022-10-04T03:06:19.514Z,0
2022-10-04T03:07:19.520Z,0
2022-10-04T03:08:19.620Z,0
2022-10-04T03:09:19.558Z,0
2022-10-04T03:10:19.531Z,0
2022-10-04T03:11:19.522Z,0
2022-10-04T03:12:19.530Z,0
2022-10-04T03:13:19.642Z,0
2022-10-04T03:14:19.543Z,0
2022-10-04T03:15:19.634Z,0
2022-10-04T03:16:20.019Z,0
2022-10-04T03:17:19.556Z,0
2022-10-04T03:18:19.401Z,0
2022-10-04T03:19:19.561Z,0
2022-10-04T03:20:22.565Z,0
2022-10-04T03:21:19.620Z,0
2022-10-04T03:22:22.347Z,0
2022-10-04T03:23:19.576Z,0
2022-10-04T03:24:19.545Z,0
2022-10-04T03:25:19.717Z,0
2022-10-04T03:26:19.678Z,0
2022-10-04T03:27:19.551Z,0
2022-10-04T03:28:20.076Z,0
2022-10-04T03:29:19.600Z,0
2022-10-04T03:30:19.606Z,0
2022-10-04T03:31:19.720Z,0
2022-10-04T03:32:19.551Z,0
2022-10-04T03:33:22.340Z,0
2022-10-04T03:34:19.556Z,0
2022-10-04T03:35:19.569Z,0
2022-10-04T03:36:19.558Z,0
2022-10-04T03:37:22.743Z,0
2022-10-04T03:38:22.604Z,0
2022-10-04T03:39:19.578Z,0
2022-10-04T03:40:19.561Z,0
2022-10-04T03:41:19.609Z,0
2022-10-04T03:42:19.558Z,0
2022-10-04T03:43:19.610Z,0
2022-10-04T03:44:22.697Z,0
2022-10-04T03:45:19.597Z,0
2022-10-04T03:46:19.861Z,0
2022-10-04T03:47:19.566Z,0
2022-10-04T03:48:19.611Z,0
2022-10-04T03:49:22.358Z,0
2022-10-04T03:50:19.596Z,0
2022-10-04T03:51:19.592Z,0
2022-10-04T03:52:19.581Z,0
2022-10-04T03:53:19.595Z,0
2022-10-04T03:54:19.582Z,0
2022-10-04T03:55:20.679Z,0
2022-10-04T03:56:19.588Z,0
2022-10-04T03:57:19.600Z,0
2022-10-04T03:58:19.621Z,0
2022-10-04T03:59:19.613Z,0
2022-10-04T04:00:22.445Z,0
2022-10-04T04:01:20.078Z,0
2022-10-04T04:02:20.107Z,0
2022-10-04T04:03:19.625Z,0
2022-10-04T04:04:19.637Z,0
2022-10-04T04:05:19.599Z,0
2022-10-04T04:06:22.628Z,0
2022-10-04T04:07:19.631Z,0
2022-10-04T04:08:22.359Z,0
2022-10-04T04:09:19.424Z,0
2022-10-04T04:10:25.264Z,0
2022-10-04T04:11:22.414Z,0
2022-10-04T04:12:19.622Z,0
2022-10-04T04:13:19.645Z,0
2022-10-04T04:14:19.642Z,0
2022-10-04T04:15:19.518Z,0
2022-10-04T04:16:20.250Z,0
2022-10-04T04:17:22.659Z,0
2022-10-04T04:18:19.661Z,0
2022-10-04T04:19:19.651Z,0
2022-10-04T04:20:19.694Z,0
2022-10-04T04:21:19.664Z,0
2022-10-04T04:22:22.743Z,0
2022-10-04T04:23:19.813Z,0
2022-10-04T04:24:19.653Z,0
2022-10-04T04:25:19.650Z,0
2022-10-04T04:26:19.664Z,0
2022-10-04T04:27:25.907Z,0
2022-10-04T04:28:23.501Z,0
2022-10-04T04:29:19.781Z,0
2022-10-04T04:30:19.635Z,0
2022-10-04T04:31:19.992Z,0
2022-10-04T04:32:25.581Z,0
2022-10-04T04:33:25.657Z,0
2022-10-04T04:34:19.743Z,0
2022-10-04T04:35:19.626Z,0
2022-10-04T04:36:19.647Z,0
2022-10-04T04:37:19.664Z,0
2022-10-04T04:38:21.388Z,0
2022-10-04T04:39:19.652Z,0
2022-10-04T04:40:19.643Z,0
2022-10-04T04:41:19.489Z,0
2022-10-04T04:42:19.794Z,0
2022-10-04T04:43:19.717Z,0
2022-10-04T04:44:22.717Z,0
2022-10-04T04:45:19.699Z,0
2022-10-04T04:46:36.598Z,0
2022-10-04T04:47:24.372Z,0
2022-10-04T04:48:19.740Z,0
2022-10-04T04:49:22.747Z,0
2022-10-04T04:50:19.681Z,0
2022-10-04T04:51:19.709Z,0
2022-10-04T04:52:19.712Z,0
2022-10-04T04:53:22.740Z,0
2022-10-04T04:54:19.860Z,0
2022-10-04T04:55:22.718Z,0
2022-10-04T04:56:25.001Z,0
2022-10-04T04:57:19.673Z,0
2022-10-04T04:58:21.597Z,0
2022-10-04T04:59:19.673Z,0
2022-10-04T05:00:22.757Z,0
2022-10-04T05:01:20.432Z,0
2022-10-04T05:02:20.098Z,0
2022-10-04T05:03:19.744Z,0
2022-10-04T05:04:19.748Z,0
2022-10-04T05:05:19.720Z,0
2022-10-04T05:06:22.731Z,0
2022-10-04T05:07:19.697Z,0
2022-10-04T05:08:19.713Z,0
2022-10-04T05:09:19.679Z,0
2022-10-04T05:10:19.713Z,0
2022-10-04T05:11:22.555Z,0
2022-10-04T05:12:19.702Z,0
2022-10-04T05:13:19.720Z,0
2022-10-04T05:14:19.715Z,0
2022-10-04T05:15:24.121Z,0
2022-10-04T05:16:20.108Z,0
2022-10-04T05:17:22.783Z,0
2022-10-04T05:18:19.766Z,0
2022-10-04T05:19:19.707Z,0
2022-10-04T05:20:19.867Z,0
2022-10-04T05:21:19.769Z,0
2022-10-04T05:22:20.773Z,0
2022-10-04T05:23:19.711Z,0
2022-10-04T05:24:19.965Z,0
2022-10-04T05:25:19.722Z,0
2022-10-04T05:26:21.072Z,0
2022-10-04T05:27:19.738Z,0
2022-10-04T05:28:20.254Z,0
2022-10-04T05:29:19.709Z,0
2022-10-04T05:30:19.909Z,0
2022-10-04T05:31:20.000Z,0
2022-10-04T05:32:20.048Z,0
2022-10-04T05:33:19.770Z,0
2022-10-04T05:34:19.746Z,0
2022-10-04T05:35:19.755Z,0
2022-10-04T05:36:19.814Z,0
2022-10-04T05:37:19.877Z,0
2022-10-04T05:38:19.785Z,0
2022-10-04T05:39:19.737Z,0
2022-10-04T05:40:22.790Z,0
2022-10-04T05:41:19.779Z,0
2022-10-04T05:42:19.859Z,0
2022-10-04T05:43:19.749Z,0
2022-10-04T05:44:19.742Z,0
2022-10-04T05:45:19.754Z,0
2022-10-04T05:46:20.218Z,0
2022-10-04T05:47:19.741Z,0
2022-10-04T05:48:19.845Z,0
2022-10-04T05:49:26.205Z,0
2022-10-04T05:50:19.737Z,0
2022-10-04T05:51:19.732Z,0
2022-10-04T05:52:19.870Z,0
2022-10-04T05:53:20.001Z,0
2022-10-04T05:54:19.761Z,0
2022-10-04T05:55:19.851Z,0
2022-10-04T05:56:19.790Z,0
2022-10-04T05:57:19.780Z,0
2022-10-04T05:58:19.801Z,0
2022-10-04T05:59:19.742Z,0
2022-10-04T06:00:22.637Z,0
2022-10-04T06:01:20.219Z,0
2022-10-04T06:02:20.070Z,0
2022-10-04T06:03:19.780Z,0
2022-10-04T06:04:19.868Z,0
2022-10-04T06:05:29.001Z,0
2022-10-04T06:06:19.756Z,0
2022-10-04T06:07:19.836Z,0
2022-10-04T06:08:19.834Z,0
2022-10-04T06:09:19.790Z,0
2022-10-04T06:10:19.779Z,0
2022-10-04T06:11:22.562Z,0
2022-10-04T06:12:19.770Z,0
2022-10-04T06:13:19.780Z,0
2022-10-04T06:14:19.826Z,0
2022-10-04T06:15:19.766Z,0
2022-10-04T06:16:23.141Z,0
2022-10-04T06:17:19.812Z,0
2022-10-04T06:18:19.786Z,0
2022-10-04T06:19:19.790Z,5
2022-10-04T06:20:19.898Z,5
2022-10-04T06:21:19.783Z,5
2022-10-04T06:22:20.866Z,5
2022-10-04T06:23:19.803Z,5
2022-10-04T06:24:27.007Z,5
2022-10-04T06:25:19.818Z,5
2022-10-04T06:26:22.872Z,5
2022-10-04T06:27:22.922Z,5
2022-10-04T06:28:20.382Z,5
2022-10-04T06:29:19.852Z,5
2022-10-04T06:30:22.943Z,5
2022-10-04T06:31:20.226Z,5
2022-10-04T06:32:20.009Z,5
2022-10-04T06:33:22.934Z,5
2022-10-04T06:34:19.874Z,5
2022-10-04T06:35:19.817Z,5
2022-10-04T06:36:19.711Z,5
2022-10-04T06:37:19.811Z,5
2022-10-04T06:38:22.768Z,5
2022-10-04T06:39:19.799Z,5
2022-10-04T06:40:19.889Z,5
2022-10-04T06:41:19.831Z,5
2022-10-04T06:42:19.985Z,10
2022-10-04T06:43:19.868Z,10
2022-10-04T06:44:22.951Z,10
2022-10-04T06:45:19.818Z,10
2022-10-04T06:46:20.225Z,10
2022-10-04T06:47:19.841Z,10
2022-10-04T06:48:19.842Z,10
2022-10-04T06:49:22.850Z,10
2022-10-04T06:50:19.832Z,10
2022-10-04T06:51:19.830Z,10
2022-10-04T06:52:24.523Z,10
2022-10-04T06:53:19.894Z,10
2022-10-04T06:54:22.677Z,10
2022-10-04T06:55:22.638Z,10
2022-10-04T06:56:20.005Z,10
2022-10-04T06:57:19.901Z,10
2022-10-04T06:58:19.842Z,10
2022-10-04T06:59:19.833Z,10
2022-10-04T07:00:22.612Z,10
2022-10-04T07:01:20.162Z,10
2022-10-04T07:02:20.483Z,10
2022-10-04T07:03:19.868Z,10
2022-10-04T07:04:19.843Z,10
2022-10-04T07:05:22.680Z,10
2022-10-04T07:06:19.856Z,10
2022-10-04T07:07:19.853Z,15
2022-10-04T07:08:19.905Z,15
2022-10-04T07:09:19.871Z,15
2022-10-04T07:10:20.063Z,15
2022-10-04T07:11:24.424Z,15
2022-10-04T07:12:19.922Z,15
2022-10-04T07:13:19.927Z,15
2022-10-04T07:14:19.865Z,15
2022-10-04T07:15:19.854Z,15
2022-10-04T07:16:23.187Z,15
2022-10-04T07:17:19.862Z,15
2022-10-04T07:18:19.998Z,15
2022-10-04T07:19:19.863Z,15
2022-10-04T07:20:19.966Z,15
2022-10-04T07:21:19.879Z,20
2022-10-04T07:22:22.987Z,20
2022-10-04T07:23:19.883Z,20
2022-10-04T07:24:19.902Z,20
2022-10-04T07:25:19.900Z,20
2022-10-04T07:26:19.967Z,20
2022-10-04T07:27:25.805Z,20
2022-10-04T07:28:20.385Z,15
2022-10-04T07:29:19.969Z,15
2022-10-04T07:30:19.908Z,15
2022-10-04T07:31:20.258Z,20
2022-10-04T07:32:19.901Z,20
2022-10-04T07:33:21.011Z,20
2022-10-04T07:34:19.913Z,20
2022-10-04T07:35:19.893Z,20
2022-10-04T07:36:25.615Z,20
2022-10-04T07:37:19.983Z,20
2022-10-04T07:38:20.257Z,20
2022-10-04T07:39:19.910Z,20
2022-10-04T07:40:19.933Z,20
2022-10-04T07:41:19.900Z,20
2022-10-04T07:42:19.932Z,20
2022-10-04T07:43:19.987Z,20
2022-10-04T07:44:22.648Z,20
2022-10-04T07:45:19.943Z,25
2022-10-04T07:46:20.276Z,25
2022-10-04T07:47:19.928Z,25
2022-10-04T07:48:19.916Z,25
2022-10-04T07:49:22.942Z,25
2022-10-04T07:50:19.916Z,25
2022-10-04T07:51:19.940Z,25
2022-10-04T07:52:19.936Z,25
2022-10-04T07:53:20.074Z,30
2022-10-04T07:54:19.921Z,30
2022-10-04T07:55:19.929Z,30
2022-10-04T07:56:19.948Z,30
2022-10-04T07:57:19.929Z,30
2022-10-04T07:58:19.967Z,30
2022-10-04T07:59:20.058Z,30
2022-10-04T08:00:19.937Z,30
2022-10-04T08:01:19.957Z,30
2022-10-04T08:02:20.830Z,30
2022-10-04T08:03:20.373Z,30
2022-10-04T08:04:19.954Z,30
2022-10-04T08:05:19.966Z,35
2022-10-04T08:06:19.950Z,35
2022-10-04T08:07:19.948Z,35
2022-10-04T08:08:19.978Z,35
2022-10-04T08:09:19.955Z,35
2022-10-04T08:10:21.067Z,35
2022-10-04T08:11:19.956Z,30
2022-10-04T08:12:20.251Z,30
2022-10-04T08:13:20.429Z,30
2022-10-04T08:14:19.967Z,30
2022-10-04T08:15:20.003Z,30
2022-10-04T08:16:23.294Z,30
2022-10-04T08:17:24.710Z,30
2022-10-04T08:18:20.047Z,30
2022-10-04T08:19:19.981Z,30
2022-10-04T08:20:20.352Z,30
2022-10-04T08:21:19.989Z,30
2022-10-04T08:22:19.979Z,30
2022-10-04T08:23:20.026Z,30
2022-10-04T08:24:19.993Z,35
2022-10-04T08:25:19.987Z,35
2022-10-04T08:26:23.085Z,40
2022-10-04T08:27:22.971Z,40
2022-10-04T08:28:20.491Z,40
2022-10-04T08:29:19.989Z,40
2022-10-04T08:30:20.157Z,40
2022-10-04T08:31:20.446Z,40
2022-10-04T08:32:23.015Z,45
2022-10-04T08:33:20.076Z,45
2022-10-04T08:34:20.005Z,45
2022-10-04T08:35:20.008Z,45
2022-10-04T08:36:20.001Z,45
2022-10-04T08:37:20.048Z,50
2022-10-04T08:38:22.949Z,45
2022-10-04T08:39:20.011Z,50
2022-10-04T08:40:22.786Z,45
2022-10-04T08:41:20.023Z,45
2022-10-04T08:42:20.017Z,45
2022-10-04T08:43:22.816Z,45
2022-10-04T08:44:20.213Z,45
2022-10-04T08:45:20.041Z,45
2022-10-04T08:46:20.344Z,35
2022-10-04T08:47:25.801Z,35
2022-10-04T08:48:20.080Z,35
2022-10-04T08:49:23.138Z,35
2022-10-04T08:50:20.105Z,40
2022-10-04T08:51:22.754Z,40
2022-10-04T08:52:20.026Z,35
2022-10-04T08:53:20.405Z,30
2022-10-04T08:54:23.162Z,35
2022-10-04T08:55:20.012Z,30
2022-10-04T08:56:20.042Z,35
2022-10-04T08:57:25.003Z,45
2022-10-04T08:58:20.070Z,50
2022-10-04T08:59:20.031Z,45
2022-10-04T09:00:24.674Z,50
2022-10-04T09:01:20.352Z,50
2022-10-04T09:02:20.400Z,55
2022-10-04T09:03:24.819Z,50
2022-10-04T09:04:20.043Z,45
2022-10-04T09:05:22.962Z,40
2022-10-04T09:06:20.053Z,40
2022-10-04T09:07:20.058Z,40
2022-10-04T09:08:20.083Z,50
2022-10-04T09:09:20.171Z,45
2022-10-04T09:10:25.193Z,45
2022-10-04T09:11:23.123Z,40
2022-10-04T09:12:20.170Z,35
2022-10-04T09:13:20.099Z,35
2022-10-04T09:14:20.061Z,30
2022-10-04T09:15:20.047Z,35
2022-10-04T09:16:23.464Z,30
2022-10-04T09:17:29.496Z,30
2022-10-04T09:18:20.145Z,35
2022-10-04T09:19:20.118Z,35
2022-10-04T09:20:46.921Z,40
2022-10-04T09:21:23.259Z,40
2022-10-04T09:22:20.070Z,40
2022-10-04T09:23:20.172Z,45
2022-10-04T09:24:20.100Z,45
2022-10-04T09:25:24.081Z,40
2022-10-04T09:26:20.156Z,40
2022-10-04T09:28:03.153Z,45
2022-10-04T09:28:20.504Z,40
2022-10-04T09:29:20.149Z,40
2022-10-04T09:30:20.286Z,50
2022-10-04T09:31:20.463Z,45
2022-10-04T09:32:23.205Z,50
2022-10-04T09:33:20.096Z,55
2022-10-04T09:34:20.096Z,55
2022-10-04T09:35:20.224Z,55
2022-10-04T09:36:20.121Z,55
2022-10-04T09:37:20.087Z,55
2022-10-04T09:38:22.997Z,55
2022-10-04T09:39:39.137Z,55
2022-10-04T09:40:20.145Z,60
2022-10-04T09:41:20.137Z,50
2022-10-04T09:42:20.127Z,50
2022-10-04T09:43:21.511Z,60
2022-10-04T09:44:20.103Z,60
2022-10-04T09:45:20.107Z,65
2022-10-04T09:46:20.473Z,70
2022-10-04T09:47:20.127Z,75
2022-10-04T09:48:20.159Z,80
2022-10-04T09:49:23.182Z,85
2022-10-04T09:50:20.103Z,90
2022-10-04T09:51:20.190Z,90
2022-10-04T09:52:20.149Z,90
2022-10-04T09:53:20.130Z,90
2022-10-04T09:54:22.887Z,90
2022-10-04T09:55:20.129Z,90
2022-10-04T09:56:20.137Z,95
2022-10-04T09:57:20.239Z,90
2022-10-04T09:58:20.138Z,85
2022-10-04T09:59:20.212Z,85
2022-10-04T10:00:23.527Z,80
2022-10-04T10:01:20.405Z,80
2022-10-04T10:02:20.276Z,80
2022-10-04T10:03:25.241Z,75
2022-10-04T10:04:20.152Z,75
2022-10-04T10:05:22.921Z,80
2022-10-04T10:06:20.161Z,75
2022-10-04T10:07:23.203Z,75
2022-10-04T10:08:22.023Z,75
2022-10-04T10:09:20.163Z,75
2022-10-04T10:10:20.294Z,70
2022-10-04T10:11:23.289Z,70
2022-10-04T10:12:20.176Z,70
2022-10-04T10:13:20.232Z,60
2022-10-04T10:14:20.185Z,60
2022-10-04T10:15:20.156Z,65
2022-10-04T10:16:25.111Z,60
2022-10-04T10:17:20.328Z,60
2022-10-04T10:18:20.183Z,60
2022-10-04T10:19:20.171Z,60
2022-10-04T10:20:20.291Z,65
2022-10-04T10:21:20.174Z,65
2022-10-04T10:22:20.199Z,60
2022-10-04T10:23:20.271Z,55
2022-10-04T10:24:20.229Z,55
2022-10-04T10:25:20.191Z,60
2022-10-04T10:26:20.193Z,60
2022-10-04T10:27:20.195Z,60
2022-10-04T10:28:20.604Z,65
2022-10-04T10:29:20.251Z,75
2022-10-04T10:30:20.418Z,75
2022-10-04T10:31:20.782Z,75
2022-10-04T10:32:20.226Z,75
2022-10-04T10:33:20.229Z,75
2022-10-04T10:34:20.206Z,75
2022-10-04T10:35:20.221Z,75
2022-10-04T10:36:20.235Z,75
2022-10-04T10:37:20.205Z,75
2022-10-04T10:38:26.150Z,75
2022-10-04T10:39:20.422Z,75
2022-10-04T10:40:20.280Z,75
2022-10-04T10:41:20.193Z,70
2022-10-04T10:42:20.203Z,70
2022-10-04T10:43:21.758Z,70
2022-10-04T10:44:20.277Z,65
2022-10-04T10:45:20.238Z,65
2022-10-04T10:46:23.587Z,60
2022-10-04T10:47:20.228Z,60
2022-10-04T10:48:20.274Z,60
2022-10-04T10:49:28.948Z,60
2022-10-04T10:50:20.362Z,55
2022-10-04T10:51:20.245Z,55
2022-10-04T10:52:20.259Z,55
2022-10-04T10:53:20.312Z,55
2022-10-04T10:54:23.431Z,55
2022-10-04T10:55:20.248Z,55
2022-10-04T10:56:26.749Z,55
2022-10-04T10:57:20.628Z,55
2022-10-04T10:58:20.421Z,55
2022-10-04T10:59:21.361Z,55
2022-10-04T11:00:20.386Z,55
2022-10-04T11:01:20.564Z,50
2022-10-04T11:02:28.566Z,55
2022-10-04T11:03:35.090Z,50
2022-10-04T11:04:20.265Z,55
2022-10-04T11:05:23.014Z,55
2022-10-04T11:06:20.276Z,55
2022-10-04T11:07:20.302Z,45
2022-10-04T11:08:20.275Z,55
2022-10-04T11:09:20.290Z,50
2022-10-04T11:10:23.176Z,50
2022-10-04T11:11:20.309Z,45
2022-10-04T11:12:20.285Z,50
2022-10-04T11:13:20.266Z,50
2022-10-04T11:14:20.278Z,55
2022-10-04T11:15:20.263Z,55
2022-10-04T11:16:29.493Z,55
2022-10-04T11:17:20.309Z,55
2022-10-04T11:18:20.408Z,55
2022-10-04T11:19:20.311Z,55
2022-10-04T11:20:20.276Z,55
2022-10-04T11:21:23.330Z,55
2022-10-04T11:22:20.285Z,55
2022-10-04T11:23:20.264Z,55
2022-10-04T11:24:20.382Z,55
2022-10-04T11:25:20.299Z,55
2022-10-04T11:26:20.352Z,50
2022-10-04T11:27:25.185Z,50
2022-10-04T11:28:20.799Z,45
2022-10-04T11:29:20.310Z,50
2022-10-04T11:30:20.345Z,50
2022-10-04T11:31:20.790Z,55
2022-10-04T11:32:26.177Z,55
2022-10-04T11:33:20.306Z,55
2022-10-04T11:34:25.610Z,55
2022-10-04T11:35:20.319Z,55
2022-10-04T11:36:23.340Z,55
2022-10-04T11:37:20.315Z,55
2022-10-04T11:38:23.119Z,55
2022-10-04T11:39:20.371Z,50
2022-10-04T11:40:20.354Z,55
2022-10-04T11:41:20.329Z,60
2022-10-04T11:42:20.369Z,65
2022-10-04T11:43:23.145Z,65
2022-10-04T11:44:20.361Z,55
2022-10-04T11:45:20.354Z,60
2022-10-04T11:46:20.865Z,60
2022-10-04T11:47:20.519Z,55
2022-10-04T11:48:23.512Z,55
2022-10-04T11:49:23.356Z,55
2022-10-04T11:50:20.360Z,55
2022-10-04T11:51:20.364Z,55
2022-10-04T11:52:20.330Z,55
2022-10-04T11:53:20.350Z,55
2022-10-04T11:54:23.385Z,55
2022-10-04T11:55:20.344Z,50
2022-10-04T11:56:20.354Z,55
2022-10-04T11:57:20.349Z,55
2022-10-04T11:58:21.526Z,55
2022-10-04T11:59:21.597Z,55
2022-10-04T12:00:23.401Z,55
2022-10-04T12:01:20.349Z,55
2022-10-04T12:02:20.355Z,55
2022-10-04T12:03:21.009Z,50
2022-10-04T12:04:21.051Z,55
2022-10-04T12:05:23.392Z,55
2022-10-04T12:06:20.351Z,55
2022-10-04T12:07:20.366Z,55
2022-10-04T12:08:20.384Z,55
2022-10-04T12:09:20.448Z,55
2022-10-04T12:10:21.515Z,55
2022-10-04T12:11:20.420Z,55
2022-10-04T12:12:20.398Z,50
2022-10-04T12:13:20.567Z,50
2022-10-04T12:14:20.467Z,55
2022-10-04T12:15:20.398Z,50
2022-10-04T12:16:23.754Z,45
2022-10-04T12:17:23.369Z,45
2022-10-04T12:18:20.381Z,50
2022-10-04T12:19:25.397Z,55
2022-10-04T12:20:21.427Z,50
2022-10-04T12:21:23.518Z,50
2022-10-04T12:22:20.389Z,50
2022-10-04T12:23:20.402Z,45
2022-10-04T12:24:20.412Z,45
2022-10-04T12:25:20.471Z,45
2022-10-04T12:26:26.301Z,45
2022-10-04T12:27:23.292Z,45
2022-10-04T12:28:21.070Z,40
2022-10-04T12:29:20.424Z,50
2022-10-04T12:30:20.524Z,50
2022-10-04T12:31:20.834Z,55
2022-10-04T12:32:25.932Z,50
2022-10-04T12:33:20.445Z,50
2022-10-04T12:34:20.447Z,50
2022-10-04T12:35:20.552Z,55
2022-10-04T12:36:20.534Z,50
2022-10-04T12:37:22.890Z,50
2022-10-04T12:38:23.447Z,50
2022-10-04T12:39:20.433Z,50
2022-10-04T12:40:20.435Z,50
2022-10-04T12:41:20.495Z,45
2022-10-04T12:42:20.449Z,45
2022-10-04T12:43:23.193Z,50
2022-10-04T12:44:20.477Z,55
2022-10-04T12:45:20.438Z,45
2022-10-04T12:46:21.168Z,50
2022-10-04T12:47:20.541Z,50
2022-10-04T12:48:20.467Z,50
2022-10-04T12:49:20.474Z,50
2022-10-04T12:50:20.431Z,45
2022-10-04T12:51:20.447Z,40
2022-10-04T12:52:20.788Z,45
2022-10-04T12:53:20.448Z,50
2022-10-04T12:54:20.468Z,50
2022-10-04T12:55:20.474Z,45
2022-10-04T12:56:20.465Z,45
2022-10-04T12:57:23.443Z,45
2022-10-04T12:58:20.585Z,45
2022-10-04T12:59:20.496Z,50
2022-10-04T13:00:20.483Z,45
2022-10-04T13:01:20.767Z,50
2022-10-04T13:02:21.146Z,45
2022-10-04T13:03:20.609Z,50
2022-10-04T13:04:20.550Z,50
2022-10-04T13:05:20.531Z,45
2022-10-04T13:06:20.490Z,40
2022-10-04T13:07:20.532Z,45
2022-10-04T13:08:20.523Z,45
2022-10-04T13:09:20.578Z,45
2022-10-04T13:10:33.724Z,45
2022-10-04T13:11:20.482Z,45
2022-10-04T13:12:20.693Z,50
2022-10-04T13:13:20.523Z,50
2022-10-04T13:14:21.535Z,50
2022-10-04T13:15:20.558Z,50
2022-10-04T13:17:42.590Z,45
2022-10-04T13:17:52.043Z,45
2022-10-04T13:18:55.090Z,45
2022-10-04T13:19:51.991Z,45
2022-10-04T13:20:51.984Z,40
2022-10-04T13:21:53.272Z,35
2022-10-04T13:23:07.556Z,35
2022-10-04T13:23:55.819Z,40
2022-10-04T13:24:54.849Z,40
2022-10-04T13:25:51.997Z,40
2022-10-04T13:26:52.004Z,40
2022-10-04T13:27:52.229Z,45
2022-10-04T13:28:51.964Z,45
2022-10-04T13:29:57.967Z,45
2022-10-04T13:30:52.023Z,45
2022-10-04T13:31:54.328Z,45
2022-10-04T13:32:52.055Z,45
2022-10-04T13:33:52.165Z,45
2022-10-04T13:34:52.687Z,40
2022-10-04T13:35:51.995Z,40
2022-10-04T13:36:51.992Z,40
2022-10-04T13:37:52.055Z,40
2022-10-04T13:38:51.997Z,40
2022-10-04T13:39:52.049Z,40
2022-10-04T13:40:54.764Z,35
2022-10-04T13:41:53.196Z,35
2022-10-04T13:42:52.000Z,35
2022-10-04T13:43:52.041Z,35
2022-10-04T13:44:52.032Z,35
2022-10-04T13:45:55.472Z,35
2022-10-04T13:46:52.031Z,35
2022-10-04T13:47:52.106Z,35
2022-10-04T13:48:52.177Z,40
2022-10-04T13:49:52.102Z,40
2022-10-04T13:50:52.040Z,40
2022-10-04T13:51:56.106Z,40
2022-10-04T13:52:52.125Z,40
2022-10-04T13:53:56.755Z,40
2022-10-04T13:54:52.116Z,40
2022-10-04T13:55:51.615Z,40
2022-10-04T13:56:55.052Z,45
2022-10-04T13:57:52.022Z,40
2022-10-04T13:58:52.052Z,45
2022-10-04T13:59:52.094Z,45
2022-10-04T14:00:52.301Z,45
2022-10-04T14:01:53.406Z,45
2022-10-04T14:02:55.280Z,45
2022-10-04T14:03:52.478Z,45
2022-10-04T14:04:52.170Z,45
2022-10-04T14:05:52.035Z,40
2022-10-04T14:06:52.846Z,40
2022-10-04T14:07:54.825Z,40
2022-10-04T14:08:52.069Z,40
2022-10-04T14:09:52.074Z,40
2022-10-04T14:10:52.070Z,35
2022-10-04T14:11:53.341Z,35
2022-10-04T14:12:52.069Z,35
2022-10-04T14:13:52.114Z,35
2022-10-04T14:14:52.141Z,35
2022-10-04T14:15:52.058Z,35
2022-10-04T14:16:52.639Z,35
2022-10-04T14:17:52.125Z,35
2022-10-04T14:18:55.079Z,35
2022-10-04T14:19:52.109Z,40
2022-10-04T14:20:52.124Z,40
2022-10-04T14:21:53.585Z,35
2022-10-04T14:22:52.122Z,30
2022-10-04T14:23:55.188Z,25
2022-10-04T14:24:52.095Z,25
2022-10-04T14:25:55.089Z,25
2022-10-04T14:26:53.304Z,30
2022-10-04T14:27:52.255Z,30
2022-10-04T14:28:52.160Z,30
2022-10-04T14:29:52.123Z,30